Gordon Reid — CGBR — position and weather

sailwx.info

Track history (hours):
 
Tides and Currents Weather Stations Pressure Air Temp Water Temp Dewpoint Dewpoint Depression Visibility Wind Speed Wind Dir Waves Ship Positions

Gordon Reid

Last reported at 2014-Oct-16 05:00 UTC. Time now 2014-Oct-23 00:50 UTC.
Position N 53°24' W 129°18'.

Length 49.95 m; beam 11 m; draft 5.4 m.

Type: SAR. MMSI: 316094000.

Wind from 030 at 1 knots

Barometer 1004.6 mb
Air temperature 9.2 ° C
Dewpoint 9.6 ° C

Date/timePositionNaut miles runAvg speedWind from/ knotsBaromVisibWave heightAir tempDewpointWater temp
2014-Oct-16 05:00N 53°24' W 129°18'   030 / 11004.6 9.2 9.6
2014-Oct-11 18:07N 51°14' W 127°52'610.0
2014-Oct-11 17:33N 51°09' W 127°52'10 9.7
2014-Oct-11 16:33N 50°59' W 127°50'4 0.6
2014-Oct-11 10:19N 50°55' W 127°50'0 0.0
2014-Oct-11 09:13N 50°55' W 127°50'0 0.0
2014-Oct-11 03:25N 50°55' W 127°50'0 0.0
2014-Oct-10 22:33N 50°55' W 127°50'7 6.6
2014-Oct-10 21:34N 50°50' W 127°43'1010.0
2014-Oct-10 20:33N 50°47' W 127°28'4 0.2
2014-Oct-10 04:10N 50°43' W 127°29'0 0.0
2014-Oct-09 22:28N 50°43' W 127°29'0 0.0
2014-Oct-09 21:22N 50°43' W 127°29'0 0.0
2014-Oct-09 20:22N 50°43' W 127°29'0 0.0
2014-Oct-09 19:22N 50°43' W 127°29'0 0.0
2014-Oct-09 15:28N 50°43' W 127°29'0 0.0
2014-Oct-09 14:28N 50°43' W 127°29'0 0.0
2014-Oct-09 04:16N 50°43' W 127°29'0 0.0
2014-Oct-08 23:16N 50°43' W 127°29'0 0.0
2014-Oct-08 22:28N 50°43' W 127°29'0 0.2
2014-Oct-08 21:33N 50°43' W 127°29'1 0.9
2014-Oct-08 20:30N 50°43' W 127°28'0 0.0
2014-Oct-08 19:30N 50°43' W 127°28'0 0.0
2014-Oct-08 18:30N 50°43' W 127°28'0 0.0
2014-Oct-08 17:24N 50°43' W 127°28'1 1.2
2014-Oct-08 16:25N 50°44' W 127°28'7 8.3
2014-Oct-08 15:33N 50°49' W 127°37'3 3.0
2014-Oct-08 14:33N 50°51' W 127°40'0 0.0
2014-Oct-08 13:33N 50°51' W 127°40'0 0.0
2014-Oct-08 12:33N 50°51' W 127°40'0 0.0
2014-Oct-08 11:33N 50°51' W 127°40'0 0.0
2014-Oct-08 10:33N 50°51' W 127°40'0 0.0
2014-Oct-08 09:33N 50°51' W 127°40'0 0.0
2014-Oct-08 08:33N 50°51' W 127°40'0 0.0
2014-Oct-08 07:33N 50°51' W 127°40'0 0.0
2014-Oct-08 06:33N 50°51' W 127°40'0 0.0
2014-Oct-08 05:33N 50°51' W 127°40'0 0.0
2014-Oct-08 04:33N 50°51' W 127°40'0 0.0
2014-Oct-08 03:33N 50°51' W 127°40'0 0.0
2014-Oct-08 02:33N 50°51' W 127°40'0 0.0
2014-Oct-08 01:33N 50°51' W 127°40'3 2.7
2014-Oct-08 00:34N 50°54' W 127°40'1010.2
2014-Oct-07 23:33N 50°58' W 127°55'2 1.0
2014-Oct-07 21:33N 50°59' W 127°57'2 1.9
2014-Oct-07 20:32N 51°01' W 127°56'1211.7
2014-Oct-07 19:32N 51°12' W 127°52'1511.5
2014-Oct-07 18:13N 51°27' W 127°51'  
Track history (hours):
 
Tides and Currents Weather Stations Pressure Air Temp Water Temp Dewpoint Dewpoint Depression Visibility Wind Speed Wind Dir Waves Ship Positions

Gordon Reid

Last reported at 2014-Oct-16 05:00 UTC. Time now 2014-Oct-23 00:50 UTC.
Position N 53°24' W 129°18'.

Length 49.95 m; beam 11 m; draft 5.4 m.

Type: SAR. MMSI: 316094000.

Wind from 030 at 1 knots

Barometer 1004.6 mb
Air temperature 9.2 ° C
Dewpoint 9.6 ° C

Date/timePositionNaut miles runAvg speedWind from/ knotsBaromVisibWave heightAir tempDewpointWater temp
2014-Oct-16 05:00N 53°24' W 129°18'   030 / 11004.6 9.2 9.6
2014-Oct-11 18:07N 51°14' W 127°52'610.0
2014-Oct-11 17:33N 51°09' W 127°52'10 9.7
2014-Oct-11 16:33N 50°59' W 127°50'4 0.6
2014-Oct-11 10:19N 50°55' W 127°50'0 0.0
2014-Oct-11 09:13N 50°55' W 127°50'0 0.0
2014-Oct-11 03:25N 50°55' W 127°50'0 0.0
2014-Oct-10 22:33N 50°55' W 127°50'7 6.6
2014-Oct-10 21:34N 50°50' W 127°43'1010.0
2014-Oct-10 20:33N 50°47' W 127°28'4 0.2
2014-Oct-10 04:10N 50°43' W 127°29'0 0.0
2014-Oct-09 22:28N 50°43' W 127°29'0 0.0
2014-Oct-09 21:22N 50°43' W 127°29'0 0.0
2014-Oct-09 20:22N 50°43' W 127°29'0 0.0
2014-Oct-09 19:22N 50°43' W 127°29'0 0.0
2014-Oct-09 15:28N 50°43' W 127°29'0 0.0
2014-Oct-09 14:28N 50°43' W 127°29'0 0.0
2014-Oct-09 04:16N 50°43' W 127°29'0 0.0
2014-Oct-08 23:16N 50°43' W 127°29'0 0.0
2014-Oct-08 22:28N 50°43' W 127°29'0 0.2
2014-Oct-08 21:33N 50°43' W 127°29'1 0.9
2014-Oct-08 20:30N 50°43' W 127°28'0 0.0
2014-Oct-08 19:30N 50°43' W 127°28'0 0.0
2014-Oct-08 18:30N 50°43' W 127°28'0 0.0
2014-Oct-08 17:24N 50°43' W 127°28'1 1.2
2014-Oct-08 16:25N 50°44' W 127°28'7 8.3
2014-Oct-08 15:33N 50°49' W 127°37'3 3.0
2014-Oct-08 14:33N 50°51' W 127°40'0 0.0
2014-Oct-08 13:33N 50°51' W 127°40'0 0.0
2014-Oct-08 12:33N 50°51' W 127°40'0 0.0
2014-Oct-08 11:33N 50°51' W 127°40'0 0.0
2014-Oct-08 10:33N 50°51' W 127°40'0 0.0
2014-Oct-08 09:33N 50°51' W 127°40'0 0.0
2014-Oct-08 08:33N 50°51' W 127°40'0 0.0
2014-Oct-08 07:33N 50°51' W 127°40'0 0.0
2014-Oct-08 06:33N 50°51' W 127°40'0 0.0
2014-Oct-08 05:33N 50°51' W 127°40'0 0.0
2014-Oct-08 04:33N 50°51' W 127°40'0 0.0
2014-Oct-08 03:33N 50°51' W 127°40'0 0.0
2014-Oct-08 02:33N 50°51' W 127°40'0 0.0
2014-Oct-08 01:33N 50°51' W 127°40'3 2.7
2014-Oct-08 00:34N 50°54' W 127°40'1010.2
2014-Oct-07 23:33N 50°58' W 127°55'2 1.0
2014-Oct-07 21:33N 50°59' W 127°57'2 1.9
2014-Oct-07 20:32N 51°01' W 127°56'1211.7
2014-Oct-07 19:32N 51°12' W 127°52'1511.5
2014-Oct-07 18:13N 51°27' W 127°51'  

Dump ship's entire track history